sensor_id;sensor_type;location;lat;lon;timestamp;P1;durP1;ratioP1;P2;durP2;ratioP2
51515;SDS011;37603;55.614;37.326;2023-02-28T00:02:31;9.8;;;3.4;;
51515;SDS011;37603;55.614;37.326;2023-02-28T00:08:29;6.2;;;3.4;;
51515;SDS011;37603;55.614;37.326;2023-02-28T00:14:30;6.6;;;3.1;;
51515;SDS011;37603;55.614;37.326;2023-02-28T00:20:26;7.6;;;3.4;;
51515;SDS011;37603;55.614;37.326;2023-02-28T00:26:24;8.8;;;3.6;;
51515;SDS011;37603;55.614;37.326;2023-02-28T00:38:21;6.7;;;3.0;;
51515;SDS011;37603;55.614;37.326;2023-02-28T00:44:19;6.0;;;3.1;;
51515;SDS011;37603;55.614;37.326;2023-02-28T00:50:18;7.1;;;3.0;;
51515;SDS011;37603;55.614;37.326;2023-02-28T00:56:16;6.6;;;3.3;;
51515;SDS011;37603;55.614;37.326;2023-02-28T01:02:14;6.1;;;3.0;;
51515;SDS011;37603;55.614;37.326;2023-02-28T01:08:13;7.1;;;3.2;;
51515;SDS011;37603;55.614;37.326;2023-02-28T01:14:12;9.0;;;3.6;;
51515;SDS011;37603;55.614;37.326;2023-02-28T01:26:09;6.9;;;3.2;;
51515;SDS011;37603;55.614;37.326;2023-02-28T01:32:06;6.1;;;2.9;;
51515;SDS011;37603;55.614;37.326;2023-02-28T01:38:05;5.7;;;3.1;;
51515;SDS011;37603;55.614;37.326;2023-02-28T01:44:04;5.8;;;2.6;;
51515;SDS011;37603;55.614;37.326;2023-02-28T01:50:03;5.0;;;2.5;;
51515;SDS011;37603;55.614;37.326;2023-02-28T01:56:00;5.7;;;2.6;;
51515;SDS011;37603;55.614;37.326;2023-02-28T02:01:58;7.8;;;3.1;;
51515;SDS011;37603;55.614;37.326;2023-02-28T02:07:57;6.7;;;3.2;;
51515;SDS011;37603;55.614;37.326;2023-02-28T02:14:01;5.9;;;3.0;;
51515;SDS011;37603;55.614;37.326;2023-02-28T02:20:03;7.5;;;3.0;;
51515;SDS011;37603;55.614;37.326;2023-02-28T02:25:53;6.1;;;2.8;;
51515;SDS011;37603;55.614;37.326;2023-02-28T02:31:53;7.3;;;3.2;;
51515;SDS011;37603;55.614;37.326;2023-02-28T02:37:50;5.8;;;2.9;;
51515;SDS011;37603;55.614;37.326;2023-02-28T02:43:48;5.7;;;2.3;;
51515;SDS011;37603;55.614;37.326;2023-02-28T02:49:46;6.4;;;2.7;;
51515;SDS011;37603;55.614;37.326;2023-02-28T02:55:44;4.8;;;2.3;;
51515;SDS011;37603;55.614;37.326;2023-02-28T03:01:42;5.8;;;2.6;;
51515;SDS011;37603;55.614;37.326;2023-02-28T03:07:40;4.1;;;2.3;;
51515;SDS011;37603;55.614;37.326;2023-02-28T03:13:44;5.5;;;2.5;;
51515;SDS011;37603;55.614;37.326;2023-02-28T03:19:41;5.3;;;2.2;;
51515;SDS011;37603;55.614;37.326;2023-02-28T03:25:37;4.7;;;2.2;;
51515;SDS011;37603;55.614;37.326;2023-02-28T03:31:35;3.8;;;2.3;;
51515;SDS011;37603;55.614;37.326;2023-02-28T03:37:32;6.1;;;2.4;;
51515;SDS011;37603;55.614;37.326;2023-02-28T03:43:32;5.8;;;2.1;;
51515;SDS011;37603;55.614;37.326;2023-02-28T03:49:30;4.9;;;2.4;;
51515;SDS011;37603;55.614;37.326;2023-02-28T03:55:28;4.8;;;2.3;;
51515;SDS011;37603;55.614;37.326;2023-02-28T04:01:28;4.7;;;2.4;;
51515;SDS011;37603;55.614;37.326;2023-02-28T04:07:24;5.1;;;2.2;;
51515;SDS011;37603;55.614;37.326;2023-02-28T04:13:23;4.6;;;2.3;;
51515;SDS011;37603;55.614;37.326;2023-02-28T04:19:21;5.0;;;2.3;;
51515;SDS011;37603;55.614;37.326;2023-02-28T04:25:20;5.1;;;2.2;;
51515;SDS011;37603;55.614;37.326;2023-02-28T04:31:18;3.6;;;2.0;;
51515;SDS011;37603;55.614;37.326;2023-02-28T04:37:16;3.8;;;1.7;;
51515;SDS011;37603;55.614;37.326;2023-02-28T04:43:15;4.6;;;1.9;;
51515;SDS011;37603;55.614;37.326;2023-02-28T04:49:13;6.0;;;2.4;;
51515;SDS011;37603;55.614;37.326;2023-02-28T04:55:12;4.4;;;2.4;;
51515;SDS011;37603;55.614;37.326;2023-02-28T05:01:17;5.7;;;2.3;;
51515;SDS011;37603;55.614;37.326;2023-02-28T05:07:08;5.2;;;2.5;;
51515;SDS011;37603;55.614;37.326;2023-02-28T05:13:08;5.3;;;2.2;;
51515;SDS011;37603;55.614;37.326;2023-02-28T05:19:05;4.9;;;2.3;;
51515;SDS011;37603;55.614;37.326;2023-02-28T05:25:03;6.1;;;2.0;;
51515;SDS011;37603;55.614;37.326;2023-02-28T05:31:02;4.0;;;2.0;;
51515;SDS011;37603;55.614;37.326;2023-02-28T05:37:00;3.6;;;2.2;;
51515;SDS011;37603;55.614;37.326;2023-02-28T05:42:58;3.0;;;1.9;;
51515;SDS011;37603;55.614;37.326;2023-02-28T05:48:57;4.9;;;2.2;;
51515;SDS011;37603;55.614;37.326;2023-02-28T05:54:55;3.6;;;1.8;;
51515;SDS011;37603;55.614;37.326;2023-02-28T06:00:53;5.1;;;1.9;;
51515;SDS011;37603;55.614;37.326;2023-02-28T06:06:52;4.4;;;2.2;;
51515;SDS011;37603;55.614;37.326;2023-02-28T06:18:49;4.1;;;1.5;;
51515;SDS011;37603;55.614;37.326;2023-02-28T06:24:47;5.3;;;2.1;;
51515;SDS011;37603;55.614;37.326;2023-02-28T06:30:46;3.0;;;1.7;;
51515;SDS011;37603;55.614;37.326;2023-02-28T06:36:44;3.1;;;1.9;;
51515;SDS011;37603;55.614;37.326;2023-02-28T06:42:43;3.5;;;1.7;;
51515;SDS011;37603;55.614;37.326;2023-02-28T06:48:42;3.9;;;1.8;;
51515;SDS011;37603;55.614;37.326;2023-02-28T06:54:40;4.1;;;1.7;;
51515;SDS011;37603;55.614;37.326;2023-02-28T07:00:38;3.1;;;1.6;;
51515;SDS011;37603;55.614;37.326;2023-02-28T07:06:36;2.5;;;1.3;;
51515;SDS011;37603;55.614;37.326;2023-02-28T07:12:36;3.6;;;1.7;;
51515;SDS011;37603;55.614;37.326;2023-02-28T07:18:34;4.9;;;1.8;;
51515;SDS011;37603;55.614;37.326;2023-02-28T07:24:34;4.7;;;2.0;;
51515;SDS011;37603;55.614;37.326;2023-02-28T07:25:55;4.7;;;2.0;;
51515;SDS011;37603;55.614;37.326;2023-02-28T07:30:30;4.1;;;1.9;;
51515;SDS011;37603;55.614;37.326;2023-02-28T07:36:29;2.6;;;1.5;;
51515;SDS011;37603;55.614;37.326;2023-02-28T07:42:27;2.8;;;1.5;;
51515;SDS011;37603;55.614;37.326;2023-02-28T07:48:26;4.3;;;2.3;;
51515;SDS011;37603;55.614;37.326;2023-02-28T08:00:23;2.5;;;1.7;;
51515;SDS011;37603;55.614;37.326;2023-02-28T08:06:22;5.1;;;1.9;;
51515;SDS011;37603;55.614;37.326;2023-02-28T08:12:20;3.9;;;2.0;;
51515;SDS011;37603;55.614;37.326;2023-02-28T08:18:19;3.3;;;1.8;;
51515;SDS011;37603;55.614;37.326;2023-02-28T08:24:17;2.8;;;1.4;;
51515;SDS011;37603;55.614;37.326;2023-02-28T08:30:16;4.0;;;1.9;;
51515;SDS011;37603;55.614;37.326;2023-02-28T08:36:14;4.7;;;1.9;;
51515;SDS011;37603;55.614;37.326;2023-02-28T08:42:13;4.8;;;2.0;;
51515;SDS011;37603;55.614;37.326;2023-02-28T08:48:11;3.7;;;1.9;;
51515;SDS011;37603;55.614;37.326;2023-02-28T08:54:10;4.1;;;2.0;;
51515;SDS011;37603;55.614;37.326;2023-02-28T09:06:08;4.1;;;1.5;;
51515;SDS011;37603;55.614;37.326;2023-02-28T09:12:06;3.9;;;1.5;;
51515;SDS011;37603;55.614;37.326;2023-02-28T09:18:04;2.8;;;1.5;;
51515;SDS011;37603;55.614;37.326;2023-02-28T09:24:03;3.7;;;1.5;;
51515;SDS011;37603;55.614;37.326;2023-02-28T09:30:01;4.6;;;1.8;;
51515;SDS011;37603;55.614;37.326;2023-02-28T09:36:00;4.4;;;2.0;;
51515;SDS011;37603;55.614;37.326;2023-02-28T09:41:58;3.1;;;1.9;;
51515;SDS011;37603;55.614;37.326;2023-02-28T09:47:58;3.2;;;1.6;;
51515;SDS011;37603;55.614;37.326;2023-02-28T09:53:56;4.2;;;1.9;;
51515;SDS011;37603;55.614;37.326;2023-02-28T09:59:57;3.1;;;1.5;;
51515;SDS011;37603;55.614;37.326;2023-02-28T10:05:54;4.0;;;1.9;;
51515;SDS011;37603;55.614;37.326;2023-02-28T10:11:52;3.7;;;1.7;;
51515;SDS011;37603;55.614;37.326;2023-02-28T10:17:51;4.7;;;2.0;;
51515;SDS011;37603;55.614;37.326;2023-02-28T10:23:48;3.7;;;1.8;;
51515;SDS011;37603;55.614;37.326;2023-02-28T10:29:47;5.4;;;3.8;;
51515;SDS011;37603;55.614;37.326;2023-02-28T10:35:45;4.5;;;2.1;;
51515;SDS011;37603;55.614;37.326;2023-02-28T10:41:44;4.8;;;1.8;;
51515;SDS011;37603;55.614;37.326;2023-02-28T10:47:49;4.1;;;1.7;;
51515;SDS011;37603;55.614;37.326;2023-02-28T10:53:45;4.2;;;1.8;;
51515;SDS011;37603;55.614;37.326;2023-02-28T10:59:40;3.6;;;1.6;;
51515;SDS011;37603;55.614;37.326;2023-02-28T11:05:38;5.4;;;2.0;;
51515;SDS011;37603;55.614;37.326;2023-02-28T11:11:42;4.8;;;3.6;;
51515;SDS011;37603;55.614;37.326;2023-02-28T11:17:35;4.5;;;2.0;;
51515;SDS011;37603;55.614;37.326;2023-02-28T11:23:35;2.9;;;1.6;;
51515;SDS011;37603;55.614;37.326;2023-02-28T11:29:33;6.1;;;2.4;;
51515;SDS011;37603;55.614;37.326;2023-02-28T11:35:32;3.0;;;1.6;;
51515;SDS011;37603;55.614;37.326;2023-02-28T11:41:33;5.0;;;2.1;;
51515;SDS011;37603;55.614;37.326;2023-02-28T11:47:31;5.2;;;1.7;;
51515;SDS011;37603;55.614;37.326;2023-02-28T11:53:34;4.4;;;2.0;;
51515;SDS011;37603;55.614;37.326;2023-02-28T11:59:30;5.5;;;4.4;;
51515;SDS011;37603;55.614;37.326;2023-02-28T12:05:26;4.3;;;2.4;;
51515;SDS011;37603;55.614;37.326;2023-02-28T12:11:27;5.1;;;2.5;;
51515;SDS011;37603;55.614;37.326;2023-02-28T12:17:23;5.2;;;2.1;;
51515;SDS011;37603;55.614;37.326;2023-02-28T12:23:23;7.5;;;3.0;;
51515;SDS011;37603;55.614;37.326;2023-02-28T12:29:19;5.4;;;2.6;;
51515;SDS011;37603;55.614;37.326;2023-02-28T12:35:18;6.9;;;2.8;;
51515;SDS011;37603;55.614;37.326;2023-02-28T12:41:16;6.4;;;2.8;;
51515;SDS011;37603;55.614;37.326;2023-02-28T12:47:15;5.7;;;2.4;;
51515;SDS011;37603;55.614;37.326;2023-02-28T12:59:13;5.4;;;2.6;;
51515;SDS011;37603;55.614;37.326;2023-02-28T13:05:14;5.3;;;4.6;;
51515;SDS011;37603;55.614;37.326;2023-02-28T13:11:16;4.7;;;2.1;;
51515;SDS011;37603;55.614;37.326;2023-02-28T13:17:10;4.5;;;2.1;;
51515;SDS011;37603;55.614;37.326;2023-02-28T13:23:14;5.2;;;2.3;;
51515;SDS011;37603;55.614;37.326;2023-02-28T13:29:05;4.1;;;2.0;;
51515;SDS011;37603;55.614;37.326;2023-02-28T13:35:12;3.9;;;2.0;;
51515;SDS011;37603;55.614;37.326;2023-02-28T13:53:03;4.0;;;2.0;;
51515;SDS011;37603;55.614;37.326;2023-02-28T13:58:58;3.7;;;1.8;;
51515;SDS011;37603;55.614;37.326;2023-02-28T14:05:00;3.2;;;1.7;;
51515;SDS011;37603;55.614;37.326;2023-02-28T14:11:03;4.6;;;3.8;;
51515;SDS011;37603;55.614;37.326;2023-02-28T14:16:53;5.2;;;4.2;;
51515;SDS011;37603;55.614;37.326;2023-02-28T14:22:53;4.1;;;2.1;;
51515;SDS011;37603;55.614;37.326;2023-02-28T14:28:55;5.0;;;2.4;;
51515;SDS011;37603;55.614;37.326;2023-02-28T14:34:51;8.9;;;3.1;;
51515;SDS011;37603;55.614;37.326;2023-02-28T14:40:47;7.2;;;5.6;;
51515;SDS011;37603;55.614;37.326;2023-02-28T14:46:47;8.0;;;3.5;;
51515;SDS011;37603;55.614;37.326;2023-02-28T14:52:44;7.6;;;3.5;;
51515;SDS011;37603;55.614;37.326;2023-02-28T14:58:50;8.8;;;6.3;;
51515;SDS011;37603;55.614;37.326;2023-02-28T15:04:42;4.5;;;2.5;;
51515;SDS011;37603;55.614;37.326;2023-02-28T15:10:40;6.2;;;2.6;;
51515;SDS011;37603;55.614;37.326;2023-02-28T15:16:39;4.5;;;2.3;;
51515;SDS011;37603;55.614;37.326;2023-02-28T15:22:38;5.1;;;2.3;;
51515;SDS011;37603;55.614;37.326;2023-02-28T15:28:36;6.6;;;5.3;;
51515;SDS011;37603;55.614;37.326;2023-02-28T15:34:36;5.1;;;2.5;;
51515;SDS011;37603;55.614;37.326;2023-02-28T15:40:35;5.4;;;2.7;;
51515;SDS011;37603;55.614;37.326;2023-02-28T15:46:32;4.3;;;2.1;;
51515;SDS011;37603;55.614;37.326;2023-02-28T15:52:33;4.4;;;2.2;;
51515;SDS011;37603;55.614;37.326;2023-02-28T15:58:30;3.0;;;1.9;;
51515;SDS011;37603;55.614;37.326;2023-02-28T16:04:28;6.5;;;5.0;;
51515;SDS011;37603;55.614;37.326;2023-02-28T16:10:27;6.8;;;5.4;;
51515;SDS011;37603;55.614;37.326;2023-02-28T16:16:25;5.4;;;2.8;;
51515;SDS011;37603;55.614;37.326;2023-02-28T16:22:24;4.8;;;2.7;;
51515;SDS011;37603;55.614;37.326;2023-02-28T16:34:21;5.4;;;2.6;;
51515;SDS011;37603;55.614;37.326;2023-02-28T16:40:21;6.6;;;2.6;;
51515;SDS011;37603;55.614;37.326;2023-02-28T16:46:18;7.3;;;5.0;;
51515;SDS011;37603;55.614;37.326;2023-02-28T16:52:17;5.0;;;2.8;;
51515;SDS011;37603;55.614;37.326;2023-02-28T16:58:16;5.7;;;2.3;;
51515;SDS011;37603;55.614;37.326;2023-02-28T17:04:14;6.3;;;4.6;;
51515;SDS011;37603;55.614;37.326;2023-02-28T17:10:14;3.7;;;2.1;;
51515;SDS011;37603;55.614;37.326;2023-02-28T17:16:14;4.3;;;2.2;;
51515;SDS011;37603;55.614;37.326;2023-02-28T17:22:10;5.4;;;3.8;;
51515;SDS011;37603;55.614;37.326;2023-02-28T17:28:09;4.9;;;2.0;;
51515;SDS011;37603;55.614;37.326;2023-02-28T17:34:07;6.6;;;4.2;;
51515;SDS011;37603;55.614;37.326;2023-02-28T17:40:09;2.5;;;1.5;;
51515;SDS011;37603;55.614;37.326;2023-02-28T17:46:05;4.2;;;2.8;;
51515;SDS011;37603;55.614;37.326;2023-02-28T17:52:03;3.0;;;1.0;;
51515;SDS011;37603;55.614;37.326;2023-02-28T17:58:03;1.8;;;1.0;;
51515;SDS011;37603;55.614;37.326;2023-02-28T18:04:01;2.4;;;1.4;;
51515;SDS011;37603;55.614;37.326;2023-02-28T18:09:59;2.6;;;1.4;;
51515;SDS011;37603;55.614;37.326;2023-02-28T18:15:58;3.4;;;0.5;;
51515;SDS011;37603;55.614;37.326;2023-02-28T18:21:57;1.5;;;1.0;;
51515;SDS011;37603;55.614;37.326;2023-02-28T18:27:55;2.2;;;0.5;;
51515;SDS011;37603;55.614;37.326;2023-02-28T18:33:54;1.9;;;0.7;;
51515;SDS011;37603;55.614;37.326;2023-02-28T18:39:52;1.0;;;0.5;;
51515;SDS011;37603;55.614;37.326;2023-02-28T18:45:51;2.5;;;1.2;;
51515;SDS011;37603;55.614;37.326;2023-02-28T18:51:50;2.6;;;1.0;;
51515;SDS011;37603;55.614;37.326;2023-02-28T18:57:48;2.0;;;0.6;;
51515;SDS011;37603;55.614;37.326;2023-02-28T19:03:47;2.6;;;0.9;;
51515;SDS011;37603;55.614;37.326;2023-02-28T19:09:46;5.4;;;0.9;;
51515;SDS011;37603;55.614;37.326;2023-02-28T19:15:44;3.0;;;1.0;;
51515;SDS011;37603;55.614;37.326;2023-02-28T19:21:43;2.5;;;0.9;;
51515;SDS011;37603;55.614;37.326;2023-02-28T19:27:41;1.3;;;0.5;;
51515;SDS011;37603;55.614;37.326;2023-02-28T19:33:40;2.8;;;0.4;;
51515;SDS011;37603;55.614;37.326;2023-02-28T19:39:41;1.3;;;0.4;;
51515;SDS011;37603;55.614;37.326;2023-02-28T19:45:37;2.4;;;1.1;;
51515;SDS011;37603;55.614;37.326;2023-02-28T19:51:36;1.4;;;0.8;;
51515;SDS011;37603;55.614;37.326;2023-02-28T19:57:35;1.2;;;0.2;;
51515;SDS011;37603;55.614;37.326;2023-02-28T20:03:33;2.9;;;1.1;;
51515;SDS011;37603;55.614;37.326;2023-02-28T20:09:32;2.4;;;0.6;;
51515;SDS011;37603;55.614;37.326;2023-02-28T20:15:30;1.9;;;0.8;;
51515;SDS011;37603;55.614;37.326;2023-02-28T20:21:29;1.7;;;0.6;;
51515;SDS011;37603;55.614;37.326;2023-02-28T20:27:28;0.6;;;0.2;;
51515;SDS011;37603;55.614;37.326;2023-02-28T20:33:26;0.5;;;0.2;;
51515;SDS011;37603;55.614;37.326;2023-02-28T20:45:24;2.5;;;0.9;;
51515;SDS011;37603;55.614;37.326;2023-02-28T20:51:22;0.6;;;0.3;;
51515;SDS011;37603;55.614;37.326;2023-02-28T20:57:21;4.0;;;0.6;;
51515;SDS011;37603;55.614;37.326;2023-02-28T21:03:19;1.4;;;0.4;;
51515;SDS011;37603;55.614;37.326;2023-02-28T21:09:18;1.9;;;0.2;;
51515;SDS011;37603;55.614;37.326;2023-02-28T21:15:16;1.2;;;0.4;;
51515;SDS011;37603;55.614;37.326;2023-02-28T21:21:16;2.3;;;0.9;;
51515;SDS011;37603;55.614;37.326;2023-02-28T21:27:14;1.6;;;0.5;;
51515;SDS011;37603;55.614;37.326;2023-02-28T21:33:13;2.5;;;0.3;;
51515;SDS011;37603;55.614;37.326;2023-02-28T21:39:12;0.6;;;0.3;;
51515;SDS011;37603;55.614;37.326;2023-02-28T21:45:10;0.9;;;0.3;;
51515;SDS011;37603;55.614;37.326;2023-02-28T21:51:09;2.4;;;0.3;;
51515;SDS011;37603;55.614;37.326;2023-02-28T21:57:07;1.3;;;0.3;;
51515;SDS011;37603;55.614;37.326;2023-02-28T22:09:05;2.2;;;0.5;;
51515;SDS011;37603;55.614;37.326;2023-02-28T22:15:03;0.7;;;0.3;;
51515;SDS011;37603;55.614;37.326;2023-02-28T22:21:01;1.9;;;0.4;;
51515;SDS011;37603;55.614;37.326;2023-02-28T22:26:59;1.1;;;0.6;;
51515;SDS011;37603;55.614;37.326;2023-02-28T22:32:58;1.8;;;0.4;;
51515;SDS011;37603;55.614;37.326;2023-02-28T22:38:57;2.7;;;0.4;;
51515;SDS011;37603;55.614;37.326;2023-02-28T22:44:55;1.4;;;0.3;;
51515;SDS011;37603;55.614;37.326;2023-02-28T22:50:59;2.5;;;0.4;;
51515;SDS011;37603;55.614;37.326;2023-02-28T22:56:52;1.4;;;0.4;;
51515;SDS011;37603;55.614;37.326;2023-02-28T23:02:51;2.7;;;0.3;;
51515;SDS011;37603;55.614;37.326;2023-02-28T23:08:50;2.2;;;0.5;;
51515;SDS011;37603;55.614;37.326;2023-02-28T23:14:48;1.9;;;0.4;;
51515;SDS011;37603;55.614;37.326;2023-02-28T23:20:47;1.7;;;0.5;;
51515;SDS011;37603;55.614;37.326;2023-02-28T23:26:46;1.4;;;0.4;;
51515;SDS011;37603;55.614;37.326;2023-02-28T23:32:43;1.1;;;0.4;;
51515;SDS011;37603;55.614;37.326;2023-02-28T23:38:44;1.5;;;0.2;;
51515;SDS011;37603;55.614;37.326;2023-02-28T23:50:39;1.7;;;0.3;;
51515;SDS011;37603;55.614;37.326;2023-02-28T23:56:38;1.4;;;0.2;;
